Station Historical Data
Daily Summary for July 21, 2012 Units:  English    Metric   Both
« Previous Day
Next Day »
Daily Weekly Monthly Yearly Custom
  High: Low: Average:
Temperature: 88.1 °F 72.9 °F 79.3 °F
Dew Point: 77.9 °F 70.4 °F 74.6 °F
Humidity: 92% 67% 86%
Wind Speed: 9.0mph 0.0mph 1.9mph
Wind Gust: 21.0mph - -
Wind- - SSE
Pressure: 29.99 in 29.89 in -
Precipitation: 0.59 in    
Historical Graphs
 
 
Tabular Data for July 21, 2012
Time Temperature Dew Point Pressure Wind Wind Speed Wind Gust Humidity Rainfall Rate (Hourly) Conditions
00:00 77.3 °F 74.5 °F 29.90 in SSW 1.0 mph 3.0 mph 91% 0.00 in
00:05 77.2 °F 74.4 °F 29.90 in SW 5.0 mph 5.0 mph 91% 0.00 in
00:10 77.2 °F 74.4 °F 29.90 in South 3.0 mph 5.0 mph 91% 0.00 in
00:15 77.2 °F 74.7 °F 29.91 in SW 1.0 mph 3.0 mph 92% 0.00 in
00:21 77.2 °F 74.7 °F 29.91 in SSW 2.0 mph 2.0 mph 92% 0.00 in
00:26 77.1 °F 74.6 °F 29.91 in South 1.0 mph 2.0 mph 92% 0.00 in
00:31 77.1 °F 74.6 °F 29.91 in SW 1.0 mph 2.0 mph 92% 0.00 in
00:36 77.0 °F 74.5 °F 29.90 in SSW 1.0 mph 2.0 mph 92% 0.00 in
00:41 77.0 °F 74.5 °F 29.91 in SE 1.0 mph 2.0 mph 92% 0.00 in
00:46 77.0 °F 74.5 °F 29.91 in SE 1.0 mph 2.0 mph 92% 0.00 in
00:51 77.0 °F 74.5 °F 29.90 in SE 1.0 mph 1.0 mph 92% 0.00 in
00:56 77.0 °F 74.5 °F 29.90 in SE 2.0 mph 3.0 mph 92% 0.00 in
01:01 77.0 °F 74.5 °F 29.91 in Calm   1.0 mph 92% 0.00 in
01:06 76.9 °F 74.4 °F 29.91 in Calm   1.0 mph 92% 0.00 in
01:11 76.8 °F 74.3 °F 29.90 in SSW 1.0 mph 1.0 mph 92% 0.00 in
01:16 76.8 °F 74.3 °F 29.90 in SE 1.0 mph 1.0 mph 92% 0.00 in
01:22 76.7 °F 74.2 °F 29.89 in SSW 1.0 mph 2.0 mph 92% 0.00 in
01:27 76.7 °F 74.2 °F 29.89 in South 2.0 mph 2.0 mph 92% 0.00 in
01:32 76.8 °F 74.3 °F 29.89 in SW 4.0 mph 5.0 mph 92% 0.00 in
01:37 76.9 °F 74.4 °F 29.89 in SSW 3.0 mph 6.0 mph 92% 0.00 in
01:42 77.0 °F 74.5 °F 29.90 in SW 2.0 mph 4.0 mph 92% 0.00 in
01:47 77.0 °F 74.5 °F 29.90 in SW 2.0 mph 6.0 mph 92% 0.00 in
01:52 77.1 °F 74.6 °F 29.90 in SW 5.0 mph 5.0 mph 92% 0.00 in
01:57 77.0 °F 74.5 °F 29.90 in SSW 1.0 mph 6.0 mph 92% 0.00 in
02:02 77.0 °F 74.5 °F 29.89 in SSW 2.0 mph 4.0 mph 92% 0.00 in
02:07 77.0 °F 74.5 °F 29.89 in SSW 2.0 mph 4.0 mph 92% 0.00 in
02:12 77.0 °F 74.5 °F 29.89 in South 1.0 mph 4.0 mph 92% 0.00 in
02:17 77.0 °F 74.5 °F 29.89 in SSE 1.0 mph 5.0 mph 92% 0.00 in
02:22 77.1 °F 74.6 °F 29.90 in SSW 2.0 mph 3.0 mph 92% 0.00 in
02:27 77.2 °F 74.7 °F 29.90 in SSW 1.0 mph 4.0 mph 92% 0.00 in
02:32 77.2 °F 74.7 °F 29.90 in SSW 2.0 mph 3.0 mph 92% 0.00 in
02:37 77.3 °F 74.8 °F 29.90 in Calm   2.0 mph 92% 0.00 in
02:42 77.2 °F 74.7 °F 29.89 in SE 2.0 mph 2.0 mph 92% 0.00 in
02:47 77.1 °F 74.6 °F 29.89 in Calm   2.0 mph 92% 0.00 in
02:52 77.1 °F 74.6 °F 29.89 in East 3.0 mph 3.0 mph 92% 0.00 in
02:57 77.0 °F 74.5 °F 29.90 in ENE 3.0 mph 4.0 mph 92% 0.00 in
03:02 76.8 °F 74.0 °F 29.89 in NE 2.0 mph 4.0 mph 91% 0.00 in
03:07 76.8 °F 74.3 °F 29.90 in NNE 5.0 mph 7.0 mph 92% 0.00 in
03:12 75.5 °F 72.7 °F 29.92 in NNE 9.0 mph 13.0 mph 91% 0.00 in
08:22 72.9 °F 70.4 °F 29.93 in ENE 1.0 mph 3.0 mph 92% 0.00 in
08:27 73.1 °F 70.6 °F 29.93 in East 2.0 mph 3.0 mph 92% 0.00 in
08:33 73.1 °F 70.6 °F 29.93 in Calm   2.0 mph 92% 0.00 in
08:38 73.3 °F 70.8 °F 29.93 in Calm     92% 0.00 in
08:43 73.3 °F 70.8 °F 29.93 in Calm   2.0 mph 92% 0.00 in
08:48 73.3 °F 70.8 °F 29.94 in East 1.0 mph 2.0 mph 92% 0.00 in
08:53 73.4 °F 70.9 °F 29.94 in East 1.0 mph 2.0 mph 92% 0.00 in
08:58 73.5 °F 71.0 °F 29.94 in NE 3.0 mph 4.0 mph 92% 0.00 in
09:03 73.4 °F 70.9 °F 29.95 in ENE 4.0 mph 4.0 mph 92% 0.00 in
09:08 73.5 °F 71.0 °F 29.95 in East 3.0 mph 4.0 mph 92% 0.00 in
09:13 73.5 °F 71.0 °F 29.95 in ESE 2.0 mph 5.0 mph 92% 0.00 in
09:18 73.7 °F 71.2 °F 29.94 in NE 3.0 mph 4.0 mph 92% 0.00 in
09:23 74.2 °F 71.7 °F 29.94 in East 2.0 mph 3.0 mph 92% 0.00 in
09:29 75.3 °F 72.8 °F 29.94 in East 4.0 mph 5.0 mph 92% 0.00 in
09:34 75.8 °F 73.3 °F 29.94 in ESE 2.0 mph 5.0 mph 92% 0.00 in
09:39 76.3 °F 73.5 °F 29.94 in ENE 2.0 mph 6.0 mph 91% 0.00 in
09:44 76.5 °F 73.7 °F 29.95 in ESE 4.0 mph 5.0 mph 91% 0.00 in
09:49 76.8 °F 74.0 °F 29.95 in ESE 4.0 mph 5.0 mph 91% 0.00 in
09:54 76.8 °F 73.7 °F 29.95 in ESE 3.0 mph 4.0 mph 90% 0.00 in
09:59 77.2 °F 74.4 °F 29.95 in SSE 5.0 mph 5.0 mph 91% 0.00 in
10:04 77.2 °F 74.0 °F 29.95 in ESE 1.0 mph 7.0 mph 90% 0.00 in
10:09 77.7 °F 74.5 °F 29.95 in East 3.0 mph 3.0 mph 90% 0.00 in
10:14 77.8 °F 74.3 °F 29.95 in SSW 1.0 mph 4.0 mph 89% 0.00 in
10:19 78.3 °F 75.1 °F 29.95 in SE 3.0 mph 4.0 mph 90% 0.00 in
10:24 78.6 °F 74.8 °F 29.95 in South 1.0 mph 4.0 mph 88% 0.00 in
10:29 78.8 °F 74.9 °F 29.95 in SE 3.0 mph 5.0 mph 88% 0.00 in
10:34 78.6 °F 74.8 °F 29.95 in SSE 4.0 mph 7.0 mph 88% 0.00 in
10:39 78.5 °F 75.0 °F 29.95 in SSE 4.0 mph 5.0 mph 89% 0.00 in
10:44 78.4 °F 74.6 °F 29.96 in SSW 2.0 mph 6.0 mph 88% 0.00 in
10:49 78.6 °F 74.8 °F 29.96 in SE 2.0 mph 3.0 mph 88% 0.00 in
10:54 78.7 °F 74.8 °F 29.95 in SW 2.0 mph 3.0 mph 88% 0.00 in
10:59 79.1 °F 75.2 °F 29.95 in Calm   2.0 mph 88% 0.00 in
11:04 79.6 °F 75.4 °F 29.96 in South 2.0 mph 4.0 mph 87% 0.00 in
11:09 80.3 °F 75.7 °F 29.96 in SW 1.0 mph 4.0 mph 86% 0.00 in
11:14 80.8 °F 76.2 °F 29.95 in SW 4.0 mph 6.0 mph 86% 0.00 in
11:19 80.8 °F 75.9 °F 29.96 in SSE 3.0 mph 4.0 mph 85% 0.00 in
11:24 80.9 °F 76.0 °F 29.96 in SSW 4.0 mph 4.0 mph 85% 0.00 in
11:29 81.0 °F 75.7 °F 29.95 in WSW 2.0 mph 4.0 mph 84% 0.00 in
11:34 81.4 °F 76.5 °F 29.96 in SSE 3.0 mph 4.0 mph 85% 0.00 in
11:39 82.0 °F 76.0 °F 29.96 in WSW 2.0 mph 5.0 mph 82% 0.00 in
11:44 82.9 °F 76.5 °F 29.96 in West 2.0 mph 3.0 mph 81% 0.00 in
11:49 83.4 °F 76.6 °F 29.96 in Calm   2.0 mph 80% 0.00 in
11:54 84.9 °F 76.5 °F 29.96 in NE 2.0 mph 2.0 mph 76% 0.00 in
11:59 84.5 °F 76.9 °F 29.96 in North 3.0 mph 5.0 mph 78% 0.00 in
12:04 84.1 °F 77.3 °F 29.96 in NNE 3.0 mph 4.0 mph 80% 0.00 in
12:09 83.4 °F 77.0 °F 29.96 in NW 4.0 mph 5.0 mph 81% 0.00 in
12:14 83.1 °F 76.3 °F 29.96 in WNW 2.0 mph 5.0 mph 80% 0.00 in
12:19 83.4 °F 77.0 °F 29.96 in North 3.0 mph 5.0 mph 81% 0.00 in
12:24 84.0 °F 76.8 °F 29.95 in NNE 2.0 mph 5.0 mph 79% 0.00 in
12:29 84.1 °F 76.9 °F 29.95 in NE 4.0 mph 5.0 mph 79% 0.00 in
12:34 83.8 °F 76.2 °F 29.96 in ENE 3.0 mph 5.0 mph 78% 0.00 in
12:39 83.8 °F 77.0 °F 29.95 in North 2.0 mph 2.0 mph 80% 0.00 in
12:44 84.7 °F 77.5 °F 29.95 in NNW 2.0 mph 3.0 mph 79% 0.00 in
12:50 85.1 °F 77.5 °F 29.95 in NNW 2.0 mph 4.0 mph 78% 0.00 in
12:55 85.5 °F 76.7 °F 29.95 in ESE 2.0 mph 4.0 mph 75% 0.00 in
13:00 85.5 °F 76.7 °F 29.95 in NNW 2.0 mph 5.0 mph 75% 0.00 in
13:05 85.2 °F 76.8 °F 29.95 in NNW 3.0 mph 3.0 mph 76% 0.00 in
13:10 85.5 °F 77.1 °F 29.95 in NNW 1.0 mph 5.0 mph 76% 0.00 in
13:15 85.7 °F 76.9 °F 29.95 in NNW 3.0 mph 4.0 mph 75% 0.00 in
13:20 86.0 °F 76.8 °F 29.95 in ENE 3.0 mph 4.0 mph 74% 0.00 in
13:25 85.8 °F 75.3 °F 29.96 in North 1.0 mph 3.0 mph 71% 0.00 in
13:30 86.3 °F 76.2 °F 29.95 in Calm   2.0 mph 72% 0.00 in
13:35 87.0 °F 76.9 °F 29.95 in ENE 3.0 mph 4.0 mph 72% 0.00 in
13:40 86.8 °F 76.3 °F 29.95 in NE 4.0 mph 6.0 mph 71% 0.00 in
13:45 87.0 °F 76.5 °F 29.95 in NE 4.0 mph 4.0 mph 71% 0.00 in
13:50 87.4 °F 76.8 °F 29.95 in ESE 3.0 mph 4.0 mph 71% 0.00 in
13:55 87.0 °F 75.2 °F 29.95 in SE 2.0 mph 5.0 mph 68% 0.00 in
14:00 86.7 °F 75.3 °F 29.95 in NNE 2.0 mph 4.0 mph 69% 0.00 in
14:05 86.3 °F 74.9 °F 29.95 in NE 3.0 mph 5.0 mph 69% 0.00 in
14:10 86.3 °F 75.8 °F 29.95 in ENE 4.0 mph 4.0 mph 71% 0.00 in
14:15 86.3 °F 75.4 °F 29.95 in SE 1.0 mph 6.0 mph 70% 0.00 in
14:20 86.5 °F 75.6 °F 29.95 in SW 4.0 mph 4.0 mph 70% 0.00 in
14:25 86.8 °F 75.4 °F 29.95 in ESE 3.0 mph 5.0 mph 69% 0.00 in
14:30 87.2 °F 75.4 °F 29.95 in SE 2.0 mph 6.0 mph 68% 0.00 in
14:35 87.6 °F 77.9 °F 29.95 in East 3.0 mph 3.0 mph 73% 0.00 in
14:40 87.6 °F 76.6 °F 29.94 in ESE 2.0 mph 5.0 mph 70% 0.00 in
14:45 87.6 °F 75.7 °F 29.94 in East 2.0 mph 6.0 mph 68% 0.00 in
14:50 87.7 °F 75.4 °F 29.94 in ESE 3.0 mph 6.0 mph 67% 0.00 in
14:55 87.6 °F 75.3 °F 29.94 in East 3.0 mph 5.0 mph 67% 0.00 in
15:00 87.7 °F 75.8 °F 29.94 in East 4.0 mph 6.0 mph 68% 0.00 in
15:05 88.1 °F 76.2 °F 29.94 in East 4.0 mph 6.0 mph 68% 0.00 in
15:10 87.7 °F 75.4 °F 29.94 in Calm   2.0 mph 67% 0.00 in
15:15 87.4 °F 76.0 °F 29.94 in East 2.0 mph 4.0 mph 69% 0.00 in
15:20 86.6 °F 75.7 °F 29.94 in NE 4.0 mph 5.0 mph 70% 0.00 in
15:25 86.1 °F 75.6 °F 29.94 in NE 2.0 mph 3.0 mph 71% 0.00 in
15:30 85.8 °F 75.7 °F 29.94 in ESE 2.0 mph 4.0 mph 72% 0.00 in
15:35 85.1 °F 76.3 °F 29.94 in ESE 5.0 mph 7.0 mph 75% 0.00 in
15:40 83.6 °F 74.8 °F 29.94 in East 9.0 mph 16.0 mph 75% 1.48 in
15:45 80.5 °F 74.5 °F 29.93 in NNW 9.0 mph 21.0 mph 82% 1.11 in
15:50 79.5 °F 74.2 °F 29.93 in ENE 5.0 mph 6.0 mph 84% 0.64 in
15:55 79.2 °F 72.5 °F 29.93 in NE 2.0 mph 6.0 mph 80% 0.55 in
16:00 79.3 °F 73.3 °F 29.94 in East 1.0 mph 3.0 mph 82% 0.61 in
16:05 78.9 °F 73.7 °F 29.94 in NNE 2.0 mph 2.0 mph 84% 0.17 in
16:10 78.3 °F 74.8 °F 29.93 in WNW 3.0 mph 3.0 mph 89% 0.07 in
16:15 77.6 °F 74.4 °F 29.93 in NNW 2.0 mph 5.0 mph 90% 0.04 in
16:20 77.3 °F 73.8 °F 29.93 in NNW 5.0 mph 10.0 mph 89% 0.04 in
16:25 77.3 °F 74.1 °F 29.93 in NNW 2.0 mph 3.0 mph 90% 0.04 in
16:30 77.5 °F 74.3 °F 29.93 in NW 2.0 mph 5.0 mph 90% 0.04 in
16:35 77.5 °F 74.7 °F 29.94 in NNE 3.0 mph 6.0 mph 91% 0.04 in
16:40 77.5 °F 74.7 °F 29.94 in North 2.0 mph 4.0 mph 91% 0.00 in
16:45 77.6 °F 74.8 °F 29.94 in NE 2.0 mph 5.0 mph 91% 0.00 in
16:50 77.6 °F 74.4 °F 29.94 in NE 3.0 mph 5.0 mph 90% 0.00 in
16:55 77.7 °F 74.9 °F 29.94 in Calm   3.0 mph 91% 0.00 in
17:00 77.8 °F 74.6 °F 29.94 in NNE 1.0 mph 3.0 mph 90% 0.00 in
17:05 78.1 °F 74.9 °F 29.93 in ENE 1.0 mph 3.0 mph 90% 0.00 in
17:11 78.1 °F 74.9 °F 29.94 in WSW 2.0 mph 2.0 mph 90% 0.00 in
17:16 78.0 °F 74.8 °F 29.94 in West 2.0 mph 4.0 mph 90% 0.00 in
17:21 78.0 °F 74.8 °F 29.94 in SE 1.0 mph 1.0 mph 90% 0.00 in
17:26 78.1 °F 74.9 °F 29.93 in SW 1.0 mph 2.0 mph 90% 0.00 in
17:31 78.1 °F 74.9 °F 29.93 in SW 1.0 mph 2.0 mph 90% 0.00 in
17:36 78.0 °F 74.8 °F 29.93 in SW 2.0 mph 3.0 mph 90% 0.00 in
17:41 77.6 °F 73.8 °F 29.93 in WSW 1.0 mph 3.0 mph 88% 0.00 in
17:46 77.5 °F 73.7 °F 29.93 in Calm   1.0 mph 88% 0.00 in
17:51 77.5 °F 73.7 °F 29.94 in SE 1.0 mph 1.0 mph 88% 0.00 in
17:56 77.4 °F 73.2 °F 29.94 in East 1.0 mph 1.0 mph 87% 0.00 in
18:01 77.5 °F 74.0 °F 29.93 in NE 1.0 mph 2.0 mph 89% 0.00 in
18:06 77.5 °F 74.0 °F 29.93 in East 1.0 mph 2.0 mph 89% 0.00 in
18:11 77.7 °F 74.2 °F 29.93 in East 1.0 mph 1.0 mph 89% 0.00 in
18:16 78.6 °F 75.4 °F 29.93 in SE 1.0 mph 2.0 mph 90% 0.00 in
18:21 79.4 °F 75.9 °F 29.94 in SE 1.0 mph 2.0 mph 89% 0.00 in
18:26 80.1 °F 76.2 °F 29.94 in Calm   2.0 mph 88% 0.00 in
18:31 80.9 °F 76.3 °F 29.94 in Calm   2.0 mph 86% 0.00 in
18:36 81.9 °F 76.9 °F 29.93 in Calm   2.0 mph 85% 0.00 in
18:41 82.9 °F 76.5 °F 29.93 in ESE 2.0 mph 3.0 mph 81% 0.00 in
18:46 83.0 °F 76.2 °F 29.93 in SE 2.0 mph 3.0 mph 80% 0.00 in
18:51 82.9 °F 75.7 °F 29.93 in SE 2.0 mph 3.0 mph 79% 0.00 in
18:56 83.2 °F 76.8 °F 29.93 in SW 6.0 mph 6.0 mph 81% 0.00 in
19:01 81.5 °F 75.8 °F 29.94 in West 2.0 mph 8.0 mph 83% 0.00 in
19:06 79.9 °F 74.3 °F 29.94 in SW 7.0 mph 7.0 mph 83% 0.00 in
19:11 79.4 °F 74.2 °F 29.94 in SSW 1.0 mph 4.0 mph 84% 0.00 in
19:16 80.1 °F 75.2 °F 29.94 in Calm     85% 0.00 in
19:21 81.0 °F 75.0 °F 29.94 in Calm   1.0 mph 82% 0.00 in
19:27 80.0 °F 74.4 °F 29.94 in WSW 1.0 mph 2.0 mph 83% 0.00 in
19:32 79.2 °F 73.9 °F 29.94 in Calm   1.0 mph 84% 0.00 in
19:37 78.8 °F 73.9 °F 29.94 in Calm   1.0 mph 85% 0.00 in
19:42 78.4 °F 74.2 °F 29.94 in WSW 2.0 mph 3.0 mph 87% 0.00 in
19:47 78.2 °F 74.4 °F 29.94 in Calm   1.0 mph 88% 0.00 in
19:52 78.8 °F 74.6 °F 29.95 in Calm     87% 0.00 in
19:57 79.4 °F 74.5 °F 29.95 in West 1.0 mph 1.0 mph 85% 0.00 in
20:02 79.4 °F 74.2 °F 29.95 in Calm     84% 0.00 in
20:07 79.6 °F 74.3 °F 29.95 in NNE 1.0 mph 1.0 mph 84% 0.00 in
20:12 79.6 °F 74.7 °F 29.95 in Calm   1.0 mph 85% 0.00 in
20:17 79.7 °F 75.2 °F 29.95 in Calm   1.0 mph 86% 0.00 in
20:22 79.8 °F 75.6 °F 29.95 in Calm     87% 0.00 in
20:27 79.7 °F 75.5 °F 29.95 in Calm   1.0 mph 87% 0.00 in
20:32 79.3 °F 75.1 °F 29.95 in ENE 1.0 mph 1.0 mph 87% 0.00 in
21:36 76.2 °F 73.7 °F 29.97 in Calm   1.0 mph 92% 0.00 in
21:42 76.0 °F 73.5 °F 29.97 in Calm     92% 0.00 in
21:47 75.8 °F 73.3 °F 29.97 in Calm     92% 0.00 in
21:52 75.8 °F 73.3 °F 29.97 in Calm   1.0 mph 92% 0.00 in
21:57 75.8 °F 73.3 °F 29.97 in Calm     92% 0.00 in
22:02 75.9 °F 73.4 °F 29.97 in Calm     92% 0.00 in
22:07 75.7 °F 73.2 °F 29.97 in Calm     92% 0.00 in
22:12 75.4 °F 72.9 °F 29.97 in Calm     92% 0.00 in
22:17 75.1 °F 72.6 °F 29.97 in Calm     92% 0.00 in
22:22 75.3 °F 72.8 °F 29.97 in Calm     92% 0.00 in
22:27 75.5 °F 73.0 °F 29.97 in Calm   1.0 mph 92% 0.00 in
22:32 75.6 °F 73.1 °F 29.97 in ENE 1.0 mph 1.0 mph 92% 0.00 in
22:37 75.7 °F 73.2 °F 29.97 in Calm   1.0 mph 92% 0.00 in
22:43 75.8 °F 73.3 °F 29.98 in Calm     92% 0.00 in
22:48 75.9 °F 73.4 °F 29.98 in ENE 1.0 mph 1.0 mph 92% 0.00 in
22:53 76.0 °F 73.5 °F 29.98 in ENE 2.0 mph 2.0 mph 92% 0.00 in
22:58 75.7 °F 73.2 °F 29.98 in ENE 1.0 mph 1.0 mph 92% 0.00 in
23:03 75.7 °F 73.2 °F 29.98 in Calm   1.0 mph 92% 0.00 in
23:08 75.6 °F 73.1 °F 29.98 in ENE 1.0 mph 1.0 mph 92% 0.00 in
23:13 75.4 °F 72.9 °F 29.98 in Calm   1.0 mph 92% 0.00 in
23:18 75.2 °F 72.7 °F 29.98 in Calm   1.0 mph 92% 0.00 in
23:23 75.2 °F 72.7 °F 29.98 in ENE 1.0 mph 2.0 mph 92% 0.00 in
23:28 75.3 °F 72.8 °F 29.98 in ENE 1.0 mph 1.0 mph 92% 0.00 in
23:33 75.5 °F 73.0 °F 29.98 in Calm   1.0 mph 92% 0.00 in
23:38 75.6 °F 73.1 °F 29.99 in Calm   1.0 mph 92% 0.00 in
23:43 75.5 °F 73.0 °F 29.99 in SE 1.0 mph 1.0 mph 92% 0.00 in
23:48 75.5 °F 73.0 °F 29.99 in Calm   1.0 mph 92% 0.00 in
23:53 75.4 °F 72.9 °F 29.99 in Calm     92% 0.00 in
23:58 75.3 °F 72.8 °F 29.98 in SE 1.0 mph 1.0 mph 92% 0.00 in
Compliments of Weather Underground